Time;durP1;ratioP1;P1;durP2;ratioP2;P2;SDS_P1;SDS_P2;PMS_P1;PMS_P2;Temp;Humidity;BMP_temperature;BMP_pressure;BME280_temperature;BME280_humidity;BME280_pressure;Samples;Min_cycle;Max_cycle;Signal;HPM_P1;HPM_P2
2024/01/05 00:04:43;;;;;;;7.63;2.28;;;;;;;;;;10402798;28;20041;-75
2024/01/05 00:09:46;;;;;;;9.80;2.90;;;;;;;;;;10405584;28;20037;-75
2024/01/05 00:14:50;;;;;;;5.82;2.20;;;;;;;;;;10392084;28;20049;-74
2024/01/05 00:19:54;;;;;;;8.55;2.15;;;;;;;;;;10417125;28;20119;-75
2024/01/05 00:24:58;;;;;;;4.82;2.20;;;;;;;;;;10394110;28;20128;-75
2024/01/05 00:30:03;;;;;;;8.52;2.20;;;;;;;;;;10398854;28;20064;-75
2024/01/05 00:35:09;;;;;;;4.65;1.83;;;;;;;;;;10398300;28;20048;-74
2024/01/05 00:40:13;;;;;;;5.22;2.15;;;;;;;;;;10395794;28;20049;-75
2024/01/05 00:45:16;;;;;;;5.70;2.05;;;;;;;;;;10396076;28;20034;-75
2024/01/05 00:50:20;;;;;;;5.43;2.17;;;;;;;;;;10399862;28;20056;-74
2024/01/05 00:55:24;;;;;;;6.88;1.88;;;;;;;;;;10402250;28;20047;-74
2024/01/05 01:00:27;;;;;;;7.03;2.35;;;;;;;;;;10394120;28;20038;-75
2024/01/05 01:05:32;;;;;;;4.25;2.00;;;;;;;;;;10399224;28;20482;-74
2024/01/05 01:10:35;;;;;;;6.32;1.90;;;;;;;;;;10380792;28;20036;-75
2024/01/05 01:15:39;;;;;;;3.28;1.73;;;;;;;;;;10398975;28;20049;-75
2024/01/05 01:20:43;;;;;;;5.68;1.23;;;;;;;;;;10395502;28;20103;-75
2024/01/05 01:25:47;;;;;;;4.22;1.40;;;;;;;;;;10400162;28;20512;-74
2024/01/05 01:30:50;;;;;;;6.50;1.92;;;;;;;;;;10392019;28;20598;-75
2024/01/05 01:35:54;;;;;;;4.22;1.70;;;;;;;;;;10401395;28;20049;-75
2024/01/05 01:40:58;;;;;;;4.47;1.50;;;;;;;;;;10402075;28;20030;-75
2024/01/05 01:46:01;;;;;;;4.43;1.50;;;;;;;;;;10394665;28;20427;-75
2024/01/05 01:51:06;;;;;;;6.35;1.40;;;;;;;;;;10381725;28;20572;-75
2024/01/05 01:56:13;;;;;;;4.95;1.65;;;;;;;;;;10397709;28;20041;-75
2024/01/05 02:01:16;;;;;;;8.85;2.08;;;;;;;;;;10394744;28;20856;-74
2024/01/05 02:06:21;;;;;;;9.43;2.63;;;;;;;;;;10397457;28;20075;-75
2024/01/05 02:11:24;;;;;;;4.28;1.27;;;;;;;;;;10388431;28;20042;-75
2024/01/05 02:16:27;;;;;;;4.22;1.75;;;;;;;;;;10402585;28;20045;-74
2024/01/05 02:21:34;;;;;;;2.58;1.20;;;;;;;;;;10394114;28;20036;-75
2024/01/05 02:26:39;;;;;;;2.67;1.10;;;;;;;;;;10376003;28;20050;-75
2024/01/05 02:31:43;;;;;;;2.15;1.25;;;;;;;;;;10391656;28;20091;-75
2024/01/05 02:36:46;;;;;;;5.25;1.40;;;;;;;;;;10367105;28;20041;-75
2024/01/05 02:41:51;;;;;;;3.70;1.30;;;;;;;;;;10370915;28;20046;-75
2024/01/05 02:46:54;;;;;;;4.00;1.10;;;;;;;;;;10385408;28;20050;-75
2024/01/05 02:51:57;;;;;;;3.50;1.55;;;;;;;;;;10390395;28;20045;-75
2024/01/05 02:57:02;;;;;;;5.68;1.98;;;;;;;;;;10397108;28;20046;-75
2024/01/05 03:02:05;;;;;;;5.00;1.70;;;;;;;;;;10394629;28;20774;-74
2024/01/05 03:07:08;;;;;;;3.75;1.23;;;;;;;;;;10393427;28;20037;-74
2024/01/05 03:12:13;;;;;;;5.80;1.70;;;;;;;;;;10392387;28;20050;-75
2024/01/05 03:17:16;;;;;;;2.47;1.00;;;;;;;;;;10392890;28;20120;-74
2024/01/05 03:22:19;;;;;;;2.90;1.20;;;;;;;;;;10391135;28;20042;-75
2024/01/05 03:27:24;;;;;;;2.53;1.13;;;;;;;;;;10368600;28;20616;-75
2024/01/05 03:32:27;;;;;;;2.22;1.20;;;;;;;;;;10378884;28;20066;-75
2024/01/05 03:37:31;;;;;;;1.95;1.10;;;;;;;;;;10403448;28;20049;-75
2024/01/05 03:42:35;;;;;;;2.67;1.17;;;;;;;;;;10397911;28;20533;-75
2024/01/05 03:47:38;;;;;;;2.95;1.20;;;;;;;;;;10405500;28;20041;-75
2024/01/05 03:52:42;;;;;;;1.65;0.85;;;;;;;;;;10387476;28;20495;-75
2024/01/05 03:57:46;;;;;;;2.30;0.93;;;;;;;;;;10403793;28;20483;-75
2024/01/05 04:02:50;;;;;;;1.52;0.82;;;;;;;;;;10398168;28;20063;-75
2024/01/05 04:07:53;;;;;;;3.53;1.20;;;;;;;;;;10405602;28;20108;-75
2024/01/05 04:12:57;;;;;;;4.32;1.48;;;;;;;;;;10398686;28;20046;-75
2024/01/05 04:18:01;;;;;;;6.28;1.65;;;;;;;;;;10398512;28;20033;-75
2024/01/05 04:23:04;;;;;;;3.05;1.60;;;;;;;;;;10400666;28;20045;-75
2024/01/05 04:28:09;;;;;;;2.95;1.30;;;;;;;;;;10398056;28;20049;-75
2024/01/05 04:33:12;;;;;;;3.38;1.17;;;;;;;;;;10404638;28;20148;-75
2024/01/05 04:38:16;;;;;;;1.70;1.00;;;;;;;;;;10401876;28;20045;-75
2024/01/05 04:43:21;;;;;;;1.73;1.00;;;;;;;;;;10399458;28;20048;-75
2024/01/05 04:48:24;;;;;;;2.60;1.10;;;;;;;;;;10401408;28;20042;-75
2024/01/05 04:53:28;;;;;;;4.25;1.33;;;;;;;;;;10402468;28;20045;-75
2024/01/05 04:58:32;;;;;;;2.60;0.93;;;;;;;;;;10403808;28;20140;-75
2024/01/05 05:03:36;;;;;;;3.90;1.25;;;;;;;;;;10414852;22;20071;-73
2024/01/05 05:08:40;;;;;;;2.35;1.13;;;;;;;;;;10402953;28;20045;-73
2024/01/05 05:13:44;;;;;;;2.05;1.08;;;;;;;;;;10386360;28;20033;-73
2024/01/05 05:18:49;;;;;;;3.22;1.13;;;;;;;;;;10397057;28;20072;-73
2024/01/05 05:23:52;;;;;;;2.15;1.30;;;;;;;;;;10403448;28;20081;-73
2024/01/05 05:28:57;;;;;;;3.17;1.38;;;;;;;;;;10405038;28;20805;-73
2024/01/05 05:34:00;;;;;;;1.48;0.95;;;;;;;;;;10396434;28;20041;-73
2024/01/05 05:39:03;;;;;;;1.77;0.98;;;;;;;;;;10400235;28;20644;-73
2024/01/05 05:44:08;;;;;;;3.38;1.00;;;;;;;;;;10396057;28;20091;-73
2024/01/05 05:49:11;;;;;;;3.47;1.17;;;;;;;;;;10396928;28;20532;-73
2024/01/05 05:54:15;;;;;;;4.82;1.60;;;;;;;;;;10395881;28;20543;-73
2024/01/05 05:59:19;;;;;;;3.20;1.27;;;;;;;;;;10400925;28;20155;-73
2024/01/05 06:04:22;;;;;;;4.05;1.08;;;;;;;;;;10397767;28;20052;-73
2024/01/05 06:09:26;;;;;;;3.55;1.00;;;;;;;;;;10391286;28;20069;-73
2024/01/05 06:14:31;;;;;;;2.30;1.08;;;;;;;;;;10390118;28;20049;-73
2024/01/05 06:19:34;;;;;;;6.75;1.60;;;;;;;;;;10388347;28;20056;-73
2024/01/05 06:24:37;;;;;;;4.22;1.45;;;;;;;;;;10385547;28;20096;-73
2024/01/05 06:29:42;;;;;;;2.85;1.40;;;;;;;;;;10385400;28;20088;-73
2024/01/05 06:34:45;;;;;;;2.45;0.80;;;;;;;;;;10396886;28;20697;-73
2024/01/05 06:39:49;;;;;;;3.95;1.42;;;;;;;;;;10398478;28;20123;-73
2024/01/05 06:44:53;;;;;;;2.60;1.00;;;;;;;;;;10399479;28;20065;-73
2024/01/05 06:49:57;;;;;;;4.43;1.25;;;;;;;;;;10401060;28;20618;-73
2024/01/05 06:55:00;;;;;;;3.40;1.30;;;;;;;;;;10380115;28;20245;-73
2024/01/05 07:00:08;;;;;;;3.55;1.63;;;;;;;;;;10395866;28;20049;-73
2024/01/05 07:05:12;;;;;;;1.73;1.30;;;;;;;;;;10401770;28;20116;-72
2024/01/05 07:10:16;;;;;;;2.83;1.10;;;;;;;;;;10395202;28;20049;-73
2024/01/05 07:15:20;;;;;;;3.10;1.48;;;;;;;;;;10392919;28;20064;-73
2024/01/05 07:20:24;;;;;;;4.07;1.67;;;;;;;;;;10398677;28;20209;-73
2024/01/05 07:25:27;;;;;;;4.03;1.65;;;;;;;;;;10398097;28;20049;-73
2024/01/05 07:30:32;;;;;;;4.50;1.60;;;;;;;;;;10394199;28;20045;-73
2024/01/05 07:35:35;;;;;;;5.30;1.90;;;;;;;;;;10393244;28;20680;-73
2024/01/05 07:40:38;;;;;;;3.75;1.60;;;;;;;;;;10391879;28;20038;-73
2024/01/05 07:45:43;;;;;;;2.60;1.60;;;;;;;;;;10396408;28;20762;-73
2024/01/05 07:50:46;;;;;;;3.70;1.55;;;;;;;;;;10391709;28;20041;-73
2024/01/05 07:55:49;;;;;;;4.45;1.90;;;;;;;;;;10380571;28;20045;-73
2024/01/05 08:00:54;;;;;;;3.55;1.75;;;;;;;;;;10395009;28;20046;-73
2024/01/05 08:05:57;;;;;;;6.63;1.83;;;;;;;;;;10380432;28;20124;-73
2024/01/05 08:11:01;;;;;;;3.88;1.63;;;;;;;;;;10388530;28;20061;-73
2024/01/05 08:16:06;;;;;;;4.75;1.77;;;;;;;;;;10397004;28;20041;-73
2024/01/05 08:21:10;;;;;;;2.15;1.10;;;;;;;;;;10401549;28;20034;-73
2024/01/05 08:26:18;;;;;;;6.20;1.65;;;;;;;;;;10406280;28;20224;-73
2024/01/05 08:31:23;;;;;;;9.55;2.72;;;;;;;;;;10405170;28;20136;-73
2024/01/05 08:36:27;;;;;;;4.38;1.60;;;;;;;;;;10384904;28;20037;-73
2024/01/05 08:41:31;;;;;;;4.15;1.30;;;;;;;;;;10400039;28;20053;-73
2024/01/05 08:46:35;;;;;;;4.07;1.58;;;;;;;;;;10406807;28;20046;-73
2024/01/05 08:51:42;;;;;;;8.73;2.05;;;;;;;;;;10404254;28;20056;-73
2024/01/05 08:56:45;;;;;;;6.07;2.03;;;;;;;;;;10401706;28;20077;-73
2024/01/05 09:01:50;;;;;;;4.13;1.42;;;;;;;;;;10409041;28;20055;-73
2024/01/05 09:06:53;;;;;;;2.92;1.45;;;;;;;;;;10394502;28;20045;-73
2024/01/05 09:11:56;;;;;;;2.70;1.42;;;;;;;;;;10403303;28;20056;-73
2024/01/05 09:17:02;;;;;;;4.03;1.40;;;;;;;;;;10406850;28;20129;-73
2024/01/05 09:22:07;;;;;;;3.83;1.70;;;;;;;;;;10399058;28;20744;-74
2024/01/05 09:27:10;;;;;;;4.45;1.92;;;;;;;;;;10401958;28;20433;-73
2024/01/05 09:32:15;;;;;;;3.42;1.83;;;;;;;;;;10390409;28;20100;-73
2024/01/05 09:37:18;;;;;;;3.13;1.48;;;;;;;;;;10393998;28;20053;-73
2024/01/05 09:42:23;;;;;;;2.90;1.17;;;;;;;;;;10390256;28;20038;-73
2024/01/05 09:47:28;;;;;;;1.92;1.20;;;;;;;;;;10387533;28;20127;-73
2024/01/05 09:52:31;;;;;;;1.52;1.20;;;;;;;;;;10403096;28;20127;-73
2024/01/05 09:57:34;;;;;;;1.73;0.90;;;;;;;;;;10395643;28;20045;-73
2024/01/05 10:02:42;;;;;;;1.52;0.90;;;;;;;;;;10398487;28;20037;-73
2024/01/05 10:07:46;;;;;;;4.13;1.45;;;;;;;;;;10390947;28;20129;-73
2024/01/05 10:12:49;;;;;;;2.88;1.10;;;;;;;;;;10394641;28;20049;-73
2024/01/05 10:17:54;;;;;;;4.45;1.08;;;;;;;;;;10396777;28;20045;-73
2024/01/05 10:23:04;;;;;;;2.80;0.88;;;;;;;;;;10396413;28;20075;-73
2024/01/05 10:28:23;;;;;;;2.00;0.80;;;;;;;;;;10393038;28;20037;-73
2024/01/05 10:33:27;;;;;;;1.25;1.00;;;;;;;;;;10395288;28;20034;-73
2024/01/05 10:38:32;;;;;;;2.72;0.90;;;;;;;;;;10398294;28;20045;-73
2024/01/05 10:43:35;;;;;;;1.88;0.90;;;;;;;;;;10399835;28;20041;-73
2024/01/05 10:48:41;;;;;;;2.30;1.02;;;;;;;;;;10396284;28;20049;-73
2024/01/05 10:53:46;;;;;;;1.90;0.70;;;;;;;;;;10399858;28;20029;-73
2024/01/05 10:58:50;;;;;;;2.50;1.00;;;;;;;;;;10393842;28;20129;-73
2024/01/05 11:03:55;;;;;;;2.47;0.90;;;;;;;;;;10420328;22;20088;-73
2024/01/05 11:09:09;;;;;;;2.33;0.90;;;;;;;;;;10435135;28;20150;-73
2024/01/05 11:14:25;;;;;;;3.17;0.95;;;;;;;;;;10432763;28;20500;-73
2024/01/05 11:19:57;;;;;;;1.30;0.70;;;;;;;;;;10431487;28;20550;-73
2024/01/05 11:25:01;;;;;;;0.73;0.52;;;;;;;;;;10431904;28;20049;-72
2024/01/05 11:30:08;;;;;;;3.63;0.80;;;;;;;;;;10431976;28;20072;-73
2024/01/05 11:35:52;;;;;;;1.15;0.70;;;;;;;;;;10433931;28;20582;-73
2024/01/05 11:40:56;;;;;;;1.27;0.70;;;;;;;;;;10428944;28;20430;-73
2024/01/05 11:46:00;;;;;;;2.03;0.60;;;;;;;;;;10432512;28;20041;-73
2024/01/05 11:51:07;;;;;;;1.30;0.45;;;;;;;;;;10429567;28;20131;-73
2024/01/05 11:56:15;;;;;;;0.90;0.50;;;;;;;;;;10436735;28;20122;-73
2024/01/05 12:01:19;;;;;;;3.30;0.50;;;;;;;;;;10429546;28;20041;-73
2024/01/05 12:06:23;;;;;;;1.05;0.40;;;;;;;;;;10434989;28;20509;-73
2024/01/05 12:11:28;;;;;;;1.55;0.38;;;;;;;;;;10430772;28;20069;-73
2024/01/05 12:16:31;;;;;;;1.27;0.50;;;;;;;;;;10432192;28;20040;-73
2024/01/05 12:21:35;;;;;;;1.48;0.60;;;;;;;;;;10433829;28;20154;-73
2024/01/05 12:26:40;;;;;;;1.25;0.50;;;;;;;;;;10437095;28;20045;-73
2024/01/05 12:31:43;;;;;;;0.50;0.50;;;;;;;;;;10441812;28;20510;-72
2024/01/05 12:36:47;;;;;;;0.85;0.55;;;;;;;;;;10428341;28;20057;-73
2024/01/05 12:41:52;;;;;;;0.40;0.40;;;;;;;;;;10430546;28;20406;-73
2024/01/05 12:46:55;;;;;;;0.95;0.57;;;;;;;;;;10441629;28;20033;-73
2024/01/05 12:51:58;;;;;;;2.53;0.70;;;;;;;;;;10440167;28;20921;-73
2024/01/05 12:57:03;;;;;;;2.17;1.00;;;;;;;;;;10440422;28;20116;-73
2024/01/05 13:02:06;;;;;;;2.83;0.95;;;;;;;;;;10436144;28;20049;-73
2024/01/05 13:07:11;;;;;;;0.95;0.50;;;;;;;;;;10432607;28;20072;-73
2024/01/05 13:12:16;;;;;;;0.57;0.38;;;;;;;;;;10433402;28;20516;-73
2024/01/05 13:17:19;;;;;;;1.55;0.57;;;;;;;;;;10434945;28;20159;-73
2024/01/05 13:22:22;;;;;;;2.05;0.70;;;;;;;;;;10440089;28;20443;-73
2024/01/05 13:27:27;;;;;;;2.00;0.63;;;;;;;;;;10434626;28;20075;-73
2024/01/05 13:32:30;;;;;;;2.25;0.85;;;;;;;;;;10423312;28;20135;-73
2024/01/05 13:37:33;;;;;;;2.30;0.80;;;;;;;;;;10428537;28;20045;-73
2024/01/05 13:42:38;;;;;;;1.55;0.68;;;;;;;;;;10436181;28;20045;-73
2024/01/05 13:47:42;;;;;;;1.77;0.73;;;;;;;;;;10435899;28;20053;-73
2024/01/05 13:52:45;;;;;;;2.08;0.70;;;;;;;;;;10442531;28;20048;-73
2024/01/05 13:57:50;;;;;;;1.88;0.75;;;;;;;;;;10442402;28;20044;-73
2024/01/05 14:02:53;;;;;;;3.42;0.70;;;;;;;;;;10438401;28;20049;-73
2024/01/05 14:07:57;;;;;;;1.40;0.68;;;;;;;;;;10440935;28;20051;-73
2024/01/05 14:13:01;;;;;;;1.20;0.70;;;;;;;;;;10436471;28;20501;-73
2024/01/05 14:18:05;;;;;;;2.75;0.85;;;;;;;;;;10437441;28;20045;-73
2024/01/05 14:23:09;;;;;;;1.50;0.70;;;;;;;;;;10442572;28;20060;-72
2024/01/05 14:28:14;;;;;;;1.92;0.93;;;;;;;;;;10420909;28;20033;-75
2024/01/05 14:33:17;;;;;;;1.70;0.60;;;;;;;;;;10432288;28;20147;-75
2024/01/05 14:38:20;;;;;;;2.58;0.88;;;;;;;;;;10429943;28;20041;-75
2024/01/05 14:43:25;;;;;;;1.20;0.70;;;;;;;;;;10429935;28;20040;-75
2024/01/05 14:48:28;;;;;;;1.58;0.57;;;;;;;;;;10428991;28;20120;-74
2024/01/05 14:53:31;;;;;;;1.25;0.60;;;;;;;;;;10415688;28;20427;-75
2024/01/05 14:58:36;;;;;;;1.25;0.50;;;;;;;;;;10436209;28;20059;-75
2024/01/05 15:03:40;;;;;;;4.40;0.90;;;;;;;;;;10432452;28;20049;-75
2024/01/05 15:08:44;;;;;;;4.47;0.80;;;;;;;;;;10432288;28;20065;-75
2024/01/05 15:13:49;;;;;;;2.88;0.98;;;;;;;;;;10431287;28;20050;-75
2024/01/05 15:18:53;;;;;;;2.05;0.90;;;;;;;;;;10425533;28;20526;-73
2024/01/05 15:23:56;;;;;;;3.08;0.75;;;;;;;;;;10428856;28;20584;-72
2024/01/05 15:29:02;;;;;;;1.08;0.57;;;;;;;;;;10437234;28;20043;-73
2024/01/05 15:34:06;;;;;;;1.48;0.65;;;;;;;;;;10444377;28;20582;-72
2024/01/05 15:39:10;;;;;;;3.17;0.55;;;;;;;;;;10443524;28;20041;-72
2024/01/05 15:44:14;;;;;;;1.48;0.90;;;;;;;;;;10442074;28;20525;-72
2024/01/05 15:49:18;;;;;;;1.98;0.70;;;;;;;;;;10441639;28;20051;-72
2024/01/05 15:54:21;;;;;;;1.90;0.90;;;;;;;;;;10441035;28;20115;-73
2024/01/05 15:59:30;;;;;;;2.30;0.90;;;;;;;;;;10438947;28;20037;-72
2024/01/05 16:04:34;;;;;;;2.17;0.95;;;;;;;;;;10435627;28;20047;-73
2024/01/05 16:09:37;;;;;;;1.35;0.52;;;;;;;;;;10440430;28;20406;-73
2024/01/05 16:14:47;;;;;;;2.03;0.90;;;;;;;;;;10437139;28;20057;-72
2024/01/05 16:19:50;;;;;;;2.50;0.93;;;;;;;;;;10438750;28;20132;-75
2024/01/05 16:24:54;;;;;;;2.10;0.98;;;;;;;;;;10420805;28;20124;-72
2024/01/05 16:29:58;;;;;;;1.25;0.80;;;;;;;;;;10435223;28;20111;-72
2024/01/05 16:35:02;;;;;;;1.13;0.77;;;;;;;;;;10435010;28;20594;-72
2024/01/05 16:40:07;;;;;;;0.63;0.63;;;;;;;;;;10436311;28;20088;-72
2024/01/05 16:45:12;;;;;;;2.05;0.95;;;;;;;;;;10434557;28;20742;-75
2024/01/05 16:50:15;;;;;;;1.73;0.77;;;;;;;;;;10433808;28;20048;-72
2024/01/05 16:55:19;;;;;;;1.50;0.90;;;;;;;;;;10433092;28;20049;-73
2024/01/05 17:00:24;;;;;;;0.93;0.80;;;;;;;;;;10434878;28;20045;-73
2024/01/05 17:05:28;;;;;;;1.13;0.70;;;;;;;;;;10405725;23;20591;-73
2024/01/05 17:10:31;;;;;;;1.05;0.68;;;;;;;;;;10358358;28;20042;-73
2024/01/05 17:15:36;;;;;;;0.82;0.55;;;;;;;;;;10360353;28;20053;-73
2024/01/05 17:20:39;;;;;;;1.80;1.10;;;;;;;;;;10376225;28;20490;-73
2024/01/05 17:25:42;;;;;;;2.38;1.20;;;;;;;;;;10360243;28;20056;-75
2024/01/05 17:30:47;;;;;;;1.13;0.98;;;;;;;;;;10359299;28;20550;-73
2024/01/05 17:35:50;;;;;;;2.78;1.73;;;;;;;;;;10362726;28;20058;-73
2024/01/05 17:40:54;;;;;;;2.60;1.30;;;;;;;;;;10358669;28;20125;-73
2024/01/05 17:46:03;;;;;;;2.33;1.42;;;;;;;;;;10355399;28;20148;-73
2024/01/05 17:51:07;;;;;;;9.95;4.45;;;;;;;;;;10354773;28;20578;-73
2024/01/05 17:56:19;;;;;;;8.70;3.28;;;;;;;;;;10359810;28;20048;-73
2024/01/05 18:01:24;;;;;;;4.78;2.42;;;;;;;;;;10357825;28;20034;-73
2024/01/05 18:06:27;;;;;;;2.22;1.17;;;;;;;;;;10353244;28;20038;-73
2024/01/05 18:11:30;;;;;;;2.45;1.17;;;;;;;;;;10352727;28;20069;-73
2024/01/05 18:16:36;;;;;;;1.98;0.85;;;;;;;;;;10354962;28;20046;-73
2024/01/05 18:21:41;;;;;;;1.13;0.80;;;;;;;;;;10357565;28;20046;-73
2024/01/05 18:26:45;;;;;;;3.28;0.60;;;;;;;;;;10363924;28;20073;-73
2024/01/05 18:31:50;;;;;;;1.27;0.80;;;;;;;;;;10348399;28;20081;-73
2024/01/05 18:36:53;;;;;;;2.65;0.90;;;;;;;;;;10353231;28;20078;-73
2024/01/05 18:41:57;;;;;;;1.08;0.70;;;;;;;;;;10355664;28;20065;-73
2024/01/05 18:47:02;;;;;;;1.38;0.82;;;;;;;;;;10356263;28;20038;-73
2024/01/05 18:52:06;;;;;;;1.38;0.73;;;;;;;;;;10355925;28;20044;-73
2024/01/05 18:57:09;;;;;;;1.00;0.68;;;;;;;;;;10353471;28;20129;-73
2024/01/05 19:02:13;;;;;;;2.10;0.85;;;;;;;;;;10362761;28;20512;-73
2024/01/05 19:07:17;;;;;;;1.77;0.73;;;;;;;;;;10352474;28;20054;-73
2024/01/05 19:12:21;;;;;;;0.70;0.47;;;;;;;;;;10357416;28;20034;-73
2024/01/05 19:17:26;;;;;;;0.75;0.50;;;;;;;;;;10353603;28;20096;-73
2024/01/05 19:22:30;;;;;;;2.42;0.75;;;;;;;;;;10356423;28;20042;-73
2024/01/05 19:27:33;;;;;;;3.92;0.90;;;;;;;;;;10357115;28;20546;-73
2024/01/05 19:32:39;;;;;;;2.83;1.00;;;;;;;;;;10368406;28;20564;-74
2024/01/05 19:37:44;;;;;;;2.50;0.73;;;;;;;;;;10350094;28;20089;-73
2024/01/05 19:42:47;;;;;;;2.55;1.35;;;;;;;;;;10350536;28;20050;-75
2024/01/05 19:47:51;;;;;;;3.70;1.40;;;;;;;;;;10348834;28;20134;-73
2024/01/05 19:52:56;;;;;;;3.10;1.50;;;;;;;;;;10337148;28;20130;-73
2024/01/05 19:57:59;;;;;;;5.68;1.30;;;;;;;;;;10347470;28;20053;-73
2024/01/05 20:03:05;;;;;;;2.85;0.90;;;;;;;;;;10349765;28;20057;-73
2024/01/05 20:08:08;;;;;;;3.80;1.10;;;;;;;;;;10344730;28;20500;-73
2024/01/05 20:13:11;;;;;;;3.33;0.80;;;;;;;;;;10357868;28;20037;-72
2024/01/05 20:18:16;;;;;;;1.50;1.02;;;;;;;;;;10349398;28;20117;-73
2024/01/05 20:23:20;;;;;;;2.42;0.98;;;;;;;;;;10349907;28;20046;-73
2024/01/05 20:28:26;;;;;;;1.40;0.82;;;;;;;;;;10360866;28;20058;-73
2024/01/05 20:33:31;;;;;;;;;;;;;;;;;;10357079;28;20133;-72
2024/01/05 20:38:34;;;;;;;1.58;0.60;;;;;;;;;;10360947;28;19921;-73
2024/01/05 20:43:39;;;;;;;0.85;0.70;;;;;;;;;;10356969;28;20054;-73
2024/01/05 20:48:44;;;;;;;1.98;0.90;;;;;;;;;;10366657;28;20035;-73
2024/01/05 20:53:47;;;;;;;1.98;0.90;;;;;;;;;;10355162;28;20054;-72
2024/01/05 20:58:51;;;;;;;1.40;1.02;;;;;;;;;;10357375;28;20128;-73
2024/01/05 21:03:55;;;;;;;1.27;0.85;;;;;;;;;;10358288;28;20046;-73
2024/01/05 21:09:00;;;;;;;1.23;0.75;;;;;;;;;;10356687;28;20095;-73
2024/01/05 21:14:04;;;;;;;2.38;1.40;;;;;;;;;;10359255;28;20070;-73
2024/01/05 21:19:08;;;;;;;2.80;1.60;;;;;;;;;;10358041;28;20118;-73
2024/01/05 21:24:12;;;;;;;2.67;1.60;;;;;;;;;;10360283;28;20038;-73
2024/01/05 21:29:16;;;;;;;4.25;1.50;;;;;;;;;;10365616;28;20111;-73
2024/01/05 21:34:20;;;;;;;5.88;2.95;;;;;;;;;;10363897;28;20141;-73
2024/01/05 21:39:24;;;;;;;5.75;2.38;;;;;;;;;;10357515;28;20061;-73
2024/01/05 21:44:28;;;;;;;3.22;1.50;;;;;;;;;;10360134;28;20045;-73
2024/01/05 21:49:35;;;;;;;2.45;1.33;;;;;;;;;;10358762;28;20040;-73
2024/01/05 21:54:38;;;;;;;6.28;2.22;;;;;;;;;;10356811;28;20415;-73
2024/01/05 21:59:43;;;;;;;5.28;2.33;;;;;;;;;;10355041;28;20063;-73
2024/01/05 22:04:47;;;;;;;4.95;1.92;;;;;;;;;;10362980;28;20062;-73
2024/01/05 22:09:51;;;;;;;3.25;1.13;;;;;;;;;;10357082;28;20037;-73
2024/01/05 22:14:54;;;;;;;1.98;0.93;;;;;;;;;;10355877;28;20050;-73
2024/01/05 22:19:59;;;;;;;7.60;3.25;;;;;;;;;;10356908;28;20103;-73
2024/01/05 22:25:03;;;;;;;17.08;6.95;;;;;;;;;;10359667;28;20054;-73
2024/01/05 22:30:08;;;;;;;14.48;6.03;;;;;;;;;;10350770;28;20583;-73
2024/01/05 22:35:12;;;;;;;4.72;2.38;;;;;;;;;;10353406;28;20046;-73
2024/01/05 22:40:17;;;;;;;4.63;2.10;;;;;;;;;;10354341;28;20040;-73
2024/01/05 22:45:20;;;;;;;2.60;1.50;;;;;;;;;;10352301;28;20116;-73
2024/01/05 22:50:25;;;;;;;6.35;2.92;;;;;;;;;;10346085;28;20038;-73
2024/01/05 22:55:28;;;;;;;7.05;3.40;;;;;;;;;;10342002;28;20058;-73
2024/01/05 23:00:33;;;;;;;5.55;2.47;;;;;;;;;;10357893;28;20500;-73
2024/01/05 23:05:38;;;;;;;6.13;2.42;;;;;;;;;;10382152;22;20256;-75
2024/01/05 23:10:42;;;;;;;2.45;1.38;;;;;;;;;;10388533;28;20410;-75
2024/01/05 23:15:47;;;;;;;5.00;2.05;;;;;;;;;;10397231;28;20469;-74
2024/01/05 23:20:52;;;;;;;3.53;1.60;;;;;;;;;;10392567;28;20049;-75
2024/01/05 23:25:55;;;;;;;3.13;1.35;;;;;;;;;;10394490;28;20050;-74
2024/01/05 23:30:58;;;;;;;3.17;1.40;;;;;;;;;;10377017;28;20441;-75
2024/01/05 23:36:03;;;;;;;3.63;1.42;;;;;;;;;;10376185;28;20050;-74
2024/01/05 23:41:06;;;;;;;2.95;1.20;;;;;;;;;;10380112;28;20080;-75
2024/01/05 23:46:10;;;;;;;1.42;0.98;;;;;;;;;;10379160;28;20057;-74
2024/01/05 23:51:15;;;;;;;3.53;1.73;;;;;;;;;;10396998;28;20045;-75
2024/01/05 23:56:18;;;;;;;2.25;1.33;;;;;;;;;;10405603;28;20037;-75
